createdAt,value
2019-05-13T00:04:27.998Z,99.90
2019-05-13T00:09:51.494Z,99.90
2019-05-13T00:15:15.925Z,99.90
2019-05-13T00:20:39.623Z,99.90
2019-05-13T00:26:03.757Z,99.90
2019-05-13T00:31:33.535Z,99.90
2019-05-13T00:37:08.944Z,99.90
2019-05-13T00:42:24.602Z,99.90
2019-05-13T00:47:47.971Z,99.90
2019-05-13T00:53:13.325Z,99.90
2019-05-13T00:58:37.977Z,99.90
2019-05-13T01:04:04.090Z,99.90
2019-05-13T01:09:27.782Z,99.90
2019-05-13T01:14:53.455Z,99.90
2019-05-13T01:20:17.069Z,99.90
2019-05-13T01:25:40.497Z,99.90
2019-05-13T01:31:04.967Z,99.90
2019-05-13T01:36:28.036Z,99.90
2019-05-13T01:41:51.047Z,99.90
2019-05-13T01:47:15.134Z,99.90
2019-05-13T01:52:38.515Z,99.90
2019-05-13T01:58:04.151Z,99.90
2019-05-13T02:03:26.763Z,99.90
2019-05-13T02:08:51.036Z,99.90
2019-05-13T02:14:16.358Z,99.90
2019-05-13T02:19:44.083Z,99.90
2019-05-13T02:25:09.765Z,99.90
2019-05-13T02:30:34.952Z,99.90
2019-05-13T02:35:59.034Z,99.90
2019-05-13T02:41:22.922Z,99.90
2019-05-13T02:46:46.254Z,99.90
2019-05-13T02:52:12.990Z,99.90
2019-05-13T02:57:34.665Z,99.90
2019-05-13T03:02:58.675Z,99.90
2019-05-13T03:08:35.277Z,99.90
2019-05-13T03:13:47.780Z,99.90
2019-05-13T03:19:13.565Z,99.90
2019-05-13T03:24:37.192Z,99.90
2019-05-13T03:30:04.219Z,99.90
2019-05-13T03:35:27.783Z,99.90
2019-05-13T03:40:52.708Z,99.90
2019-05-13T03:46:18.090Z,99.90
2019-05-13T03:51:42.859Z,99.90
2019-05-13T03:57:07.134Z,99.90
2019-05-13T04:02:32.590Z,99.90
2019-05-13T04:07:55.768Z,99.90
2019-05-13T04:13:23.004Z,99.90
2019-05-13T04:18:44.195Z,99.90
2019-05-13T04:24:07.621Z,99.90
2019-05-13T04:29:32.986Z,99.90
2019-05-13T04:34:57.139Z,99.90
2019-05-13T04:40:23.061Z,99.90
2019-05-13T04:45:47.443Z,99.90
2019-05-13T04:51:13.591Z,99.90
2019-05-13T04:56:35.849Z,99.90
2019-05-13T05:02:40.126Z,99.90
2019-05-13T05:08:27.991Z,99.90
2019-05-13T05:14:06.159Z,99.90
2019-05-13T05:20:03.627Z,99.90
2019-05-13T05:25:54.722Z,99.90
2019-05-13T05:31:35.456Z,99.90
2019-05-13T05:37:31.229Z,99.90
2019-05-13T05:42:56.629Z,99.90
2019-05-13T05:48:22.763Z,99.90
2019-05-13T05:53:51.670Z,99.90
2019-05-13T05:59:14.455Z,99.90
2019-05-13T06:04:38.015Z,99.90
2019-05-13T06:10:02.269Z,99.90
2019-05-13T06:15:26.197Z,99.90
2019-05-13T06:20:51.234Z,99.90
2019-05-13T06:26:17.216Z,99.90
2019-05-13T06:31:41.929Z,99.90
2019-05-13T06:37:06.234Z,99.90
2019-05-13T06:42:32.282Z,99.90
2019-05-13T06:47:54.696Z,99.90
2019-05-13T06:53:17.763Z,99.90
2019-05-13T06:58:41.744Z,99.90
2019-05-13T07:04:06.950Z,99.90
2019-05-13T07:09:32.338Z,99.90
2019-05-13T07:14:56.442Z,99.90
2019-05-13T07:20:22.598Z,99.90
2019-05-13T07:25:44.735Z,99.90
2019-05-13T07:31:11.577Z,99.90
2019-05-13T07:36:36.647Z,99.90
2019-05-13T07:42:05.060Z,99.90
2019-05-13T07:47:25.451Z,99.90
2019-05-13T07:53:06.826Z,99.90
2019-05-13T08:05:27.642Z,99.90
2019-05-13T08:11:03.111Z,99.90
2019-05-13T08:16:26.798Z,99.90
2019-05-13T08:21:51.382Z,99.90
2019-05-13T08:27:14.909Z,99.90
2019-05-13T08:32:49.111Z,99.90
2019-05-13T08:52:12.217Z,92.40
2019-05-13T09:11:41.955Z,95.50
2019-05-13T09:36:32.334Z,88.00
2019-05-13T09:49:27.853Z,90.10
2019-05-13T09:55:28.947Z,90.30
2019-05-13T10:07:50.368Z,83.30
2019-05-13T10:13:15.663Z,82.10
2019-05-13T10:18:41.711Z,88.80
2019-05-13T10:24:04.676Z,83.70
2019-05-13T10:29:28.679Z,86.80
2019-05-13T10:34:53.931Z,87.30
2019-05-13T10:40:17.522Z,86.80
2019-05-13T10:45:41.767Z,84.40
2019-05-13T10:51:05.595Z,80.30
2019-05-13T10:56:32.525Z,83.10
2019-05-13T11:01:54.480Z,75.60
2019-05-13T11:07:18.575Z,75.80
2019-05-13T11:12:42.757Z,69.90
2019-05-13T11:18:06.519Z,79.60
2019-05-13T11:23:44.390Z,69.40
2019-05-13T11:29:51.779Z,76.20
2019-05-13T11:35:14.283Z,74.20
2019-05-13T11:40:37.760Z,76.40
2019-05-13T11:46:02.415Z,74.00
2019-05-13T11:51:26.602Z,74.50
2019-05-13T11:57:00.823Z,73.20
2019-05-13T12:02:15.141Z,67.30
2019-05-13T12:07:38.825Z,73.00
2019-05-13T12:13:03.843Z,74.60
2019-05-13T12:18:27.423Z,72.60
2019-05-13T12:23:52.691Z,71.10
2019-05-13T12:29:19.226Z,65.30
2019-05-13T12:34:45.646Z,65.00
2019-05-13T12:40:06.516Z,61.20
2019-05-13T12:45:30.459Z,60.00
2019-05-13T12:50:54.392Z,70.60
2019-05-13T12:56:18.040Z,69.70
2019-05-13T13:01:42.211Z,67.80
2019-05-13T13:07:06.787Z,67.90
2019-05-13T13:12:36.098Z,66.30
2019-05-13T13:17:56.072Z,65.20
2019-05-13T13:23:23.141Z,61.60
2019-05-13T13:28:45.091Z,65.30
2019-05-13T13:34:13.602Z,67.40
2019-05-13T13:39:33.881Z,65.70
2019-05-13T13:44:57.915Z,65.60
2019-05-13T13:50:24.507Z,62.00
2019-05-13T13:55:46.680Z,63.10
2019-05-13T14:01:18.140Z,67.80
2019-05-13T14:12:02.174Z,63.70
2019-05-13T14:17:26.923Z,63.10
2019-05-13T14:22:54.486Z,65.00
2019-05-13T14:28:17.492Z,64.00
2019-05-13T14:33:42.484Z,63.70
2019-05-13T14:39:07.415Z,65.90
2019-05-13T14:44:32.507Z,64.10
2019-05-13T14:49:58.351Z,62.60
2019-05-13T14:55:22.716Z,62.30
2019-05-13T15:01:08.208Z,64.50
2019-05-13T15:06:13.845Z,66.30
2019-05-13T15:11:37.494Z,64.20
2019-05-13T15:17:06.860Z,65.50
2019-05-13T15:22:26.240Z,65.10
2019-05-13T15:27:52.547Z,67.30
2019-05-13T15:33:14.498Z,69.00
2019-05-13T15:38:38.561Z,67.00
2019-05-13T15:44:03.385Z,66.80
2019-05-13T15:49:27.088Z,68.60
2019-05-13T15:54:52.209Z,68.00
2019-05-13T16:00:15.824Z,66.70
2019-05-13T16:05:39.435Z,67.30
2019-05-13T16:11:03.069Z,67.50
2019-05-13T16:16:26.680Z,68.30
2019-05-13T16:21:51.827Z,67.90
2019-05-13T16:27:14.815Z,64.50
2019-05-13T16:32:38.156Z,65.60
2019-05-13T16:38:01.972Z,65.00
2019-05-13T16:43:25.675Z,69.10
2019-05-13T16:48:49.895Z,70.00
2019-05-13T16:54:13.559Z,71.00
2019-05-13T16:59:36.952Z,72.70
2019-05-13T17:05:01.453Z,69.60
2019-05-13T17:10:25.606Z,73.40
2019-05-13T17:15:49.284Z,78.90
2019-05-13T17:21:13.234Z,75.90
2019-05-13T17:26:37.247Z,78.60
2019-05-13T17:32:02.446Z,77.80
2019-05-13T17:37:26.734Z,79.60
2019-05-13T17:42:49.909Z,78.10
2019-05-13T17:48:26.009Z,74.20
2019-05-13T17:53:38.284Z,77.50
2019-05-13T17:59:02.311Z,77.30
2019-05-13T18:04:26.311Z,79.70
2019-05-13T18:09:51.987Z,80.50
2019-05-13T18:15:15.044Z,82.60
2019-05-13T18:20:38.948Z,82.90
2019-05-13T18:26:02.491Z,82.70
2019-05-13T18:31:26.424Z,80.70
2019-05-13T18:36:51.589Z,82.50
2019-05-13T18:42:15.271Z,83.30
2019-05-13T18:47:39.315Z,82.30
2019-05-13T18:53:03.068Z,81.80
2019-05-13T18:58:26.811Z,81.90
2019-05-13T19:03:50.738Z,81.70
2019-05-13T19:09:14.594Z,83.70
2019-05-13T19:14:38.050Z,83.20
2019-05-13T19:20:01.935Z,83.70
2019-05-13T19:30:48.799Z,85.40
2019-05-13T19:41:36.193Z,85.60
2019-05-13T19:52:26.582Z,87.00
2019-05-13T19:57:51.743Z,86.40
2019-05-13T20:03:15.301Z,90.90
2019-05-13T20:08:38.715Z,92.20
2019-05-13T20:14:02.207Z,93.40
2019-05-13T20:19:26.224Z,93.20
2019-05-13T20:24:51.405Z,93.10
2019-05-13T20:35:42.244Z,94.10
2019-05-13T20:41:06.300Z,93.00
2019-05-13T20:46:32.528Z,94.10
2019-05-13T20:51:57.586Z,94.50
2019-05-13T20:57:22.189Z,95.10
2019-05-13T21:02:45.343Z,95.20
2019-05-13T21:08:08.536Z,95.40
2019-05-13T21:13:32.947Z,94.90
2019-05-13T21:18:56.508Z,94.80
2019-05-13T21:24:21.361Z,94.20
2019-05-13T21:29:45.579Z,94.40
2019-05-13T21:35:11.836Z,95.90
2019-05-13T21:40:46.952Z,96.10
2019-05-13T21:46:12.040Z,95.10
2019-05-13T21:51:35.935Z,96.60
2019-05-13T21:56:59.232Z,95.70
2019-05-13T22:02:23.390Z,96.70
2019-05-13T22:07:47.095Z,96.00
2019-05-13T22:13:11.854Z,96.50
2019-05-13T22:18:35.628Z,97.30
2019-05-13T22:23:59.602Z,96.70
2019-05-13T22:29:23.616Z,97.80
2019-05-13T22:34:47.280Z,97.00
2019-05-13T22:40:11.294Z,97.60
2019-05-13T22:45:35.192Z,98.10
2019-05-13T22:51:01.169Z,97.50
2019-05-13T22:56:24.131Z,97.90
2019-05-13T23:01:47.283Z,99.40
2019-05-13T23:07:11.747Z,98.10
2019-05-13T23:12:35.155Z,97.90
2019-05-13T23:17:59.113Z,98.00
2019-05-13T23:23:23.366Z,98.50
2019-05-13T23:28:47.227Z,98.50
2019-05-13T23:34:12.077Z,99.00
2019-05-13T23:39:35.847Z,98.60
2019-05-13T23:44:59.895Z,98.70
2019-05-13T23:50:23.843Z,98.30
2019-05-13T23:55:47.327Z,98.70
